Time;durP1;ratioP1;P1;durP2;ratioP2;P2;SDS_P1;SDS_P2;PMS_P1;PMS_P2;Temp;Humidity;BMP_temperature;BMP_pressure;BME280_temperature;BME280_humidity;BME280_pressure;Samples;Min_cycle;Max_cycle;Signal;HPM_P1;HPM_P2
2022/10/01 00:00:25;;;;;;;;;;;;;;;16.44;78.38;95646.47;5053652;28;964;-74
2022/10/01 00:02:54;;;;;;;;;;;;;;;16.45;77.70;95649.00;5053409;28;1048;-74
2022/10/01 00:05:21;;;;;;;;;;;;;;;16.41;77.61;95650.38;5053618;28;1044;-74
2022/10/01 00:07:47;;;;;;;;;;;;;;;16.42;77.98;95643.13;5053490;28;1239;-74
2022/10/01 00:10:14;;;;;;;;;;;;;;;16.40;77.94;95652.22;5053501;28;1037;-74
2022/10/01 00:12:45;;;;;;;;;;;;;;;16.46;77.47;95649.81;5053373;28;1048;-74
2022/10/01 00:15:12;;;;;;;;;;;;;;;16.47;77.72;95646.09;5052650;28;1036;-74
2022/10/01 00:17:38;;;;;;;;;;;;;;;16.39;78.04;95644.34;5053142;28;1191;-74
2022/10/01 00:20:05;;;;;;;;;;;;;;;16.36;77.87;95636.59;5053441;28;1898;-74
2022/10/01 00:22:32;;;;;;;;;;;;;;;16.33;78.39;95640.53;5053422;28;1136;-74
2022/10/01 00:24:58;;;;;;;;;;;;;;;16.44;78.04;95644.59;5052100;28;989;-75
2022/10/01 00:27:27;;;;;;;;;;;;;;;16.41;78.17;95636.91;5052048;28;1068;-73
2022/10/01 00:29:53;;;;;;;;;;;;;;;16.44;77.77;95638.38;5053033;28;1057;-74
2022/10/01 00:32:20;;;;;;;;;;;;;;;16.37;78.54;95641.81;5053187;28;1072;-74
2022/10/01 00:34:47;;;;;;;;;;;;;;;16.37;79.38;95640.97;5053328;28;1040;-75
2022/10/01 00:37:14;;;;;;;;;;;;;;;16.32;79.09;95643.41;5053305;28;993;-74
2022/10/01 00:39:40;;;;;;;;;;;;;;;16.30;78.42;95635.47;5053261;28;1910;-74
2022/10/01 00:42:17;;;;;;;;;;;;;;;16.27;78.86;95641.22;5052000;28;946;-73
2022/10/01 00:44:43;;;;;;;;;;;;;;;16.34;78.63;95635.94;5052968;28;1075;-74
2022/10/01 00:47:29;;;;;;;;;;;;;;;16.38;78.27;95638.09;5053017;28;1032;-74
2022/10/01 00:49:58;;;;;;;;;;;;;;;16.38;78.06;95632.69;5051926;28;984;-74
2022/10/01 00:52:27;;;;;;;;;;;;;;;16.38;78.07;95626.47;5053079;28;1123;-74
2022/10/01 00:54:56;;;;;;;;;;;;;;;16.40;77.99;95629.81;5051820;28;1007;-74
2022/10/01 00:57:24;;;;;;;;;;;;;;;16.46;77.66;95634.44;5058553;28;1240;-74
2022/10/01 00:59:51;;;;;;;;;;;;;;;16.51;77.78;95637.44;5073077;28;1906;-73
2022/10/01 01:02:17;;;;;;;;;;;;;;;16.51;77.97;95634.75;5073080;28;1049;-74
2022/10/01 01:04:43;;;;;;;;;;;;;;;16.47;77.89;95630.75;5072961;28;992;-73
2022/10/01 01:07:10;;;;;;;;;;;;;;;16.42;78.08;95630.47;5072872;28;1037;-71
2022/10/01 01:09:38;;;;;;;;;;;;;;;16.40;78.27;95638.72;5072717;28;989;-72
2022/10/01 01:12:18;;;;;;;;;;;;;;;16.34;78.62;95644.03;5073081;28;1068;-71
2022/10/01 01:14:44;;;;;;;;;;;;;;;16.32;78.97;95636.13;5073140;28;1005;-72
2022/10/01 01:17:18;;;;;;;;;;;;;;;16.29;78.70;95633.78;5060871;28;1171;-72
2022/10/01 01:20:04;;;;;;;;;;;;;;;16.29;78.72;95624.88;5035031;28;1910;-72
2022/10/01 01:22:32;;;;;;;;;;;;;;;16.25;78.94;95635.19;5034651;28;1314;-73
2022/10/01 01:25:07;;;;;;;;;;;;;;;16.26;78.83;95633.31;5052597;28;1108;-73
2022/10/01 01:27:39;;;;;;;;;;;;;;;16.27;79.04;95635.00;5055111;28;1043;-72
2022/10/01 01:30:07;;;;;;;;;;;;;;;16.29;78.57;95643.75;5056503;28;1025;-73
2022/10/01 01:32:41;;;;;;;;;;;;;;;16.29;78.61;95641.88;5056435;28;1041;-73
2022/10/01 01:35:10;;;;;;;;;;;;;;;16.27;79.03;95638.53;5056326;28;1155;-73
2022/10/01 01:37:44;;;;;;;;;;;;;;;16.21;79.33;95647.38;5056447;28;962;-73
2022/10/01 01:40:12;;;;;;;;;;;;;;;16.20;79.36;95635.75;5056243;28;1985;-73
2022/10/01 01:42:40;;;;;;;;;;;;;;;16.23;79.73;95637.22;5056212;28;1044;-73
2022/10/01 01:45:09;;;;;;;;;;;;;;;16.31;79.43;95636.31;5056237;28;1049;-73
2022/10/01 01:47:37;;;;;;;;;;;;;;;16.30;79.18;95653.53;5055993;28;1069;-73
2022/10/01 01:50:03;;;;;;;;;;;;;;;16.28;78.62;95655.59;5056200;28;999;-73
2022/10/01 01:52:29;;;;;;;;;;;;;;;16.20;79.01;95661.88;5038468;28;1022;-72
2022/10/01 01:54:56;;;;;;;;;;;;;;;16.05;79.70;95664.56;5055976;28;1000;-73
2022/10/01 01:57:22;;;;;;;;;;;;;;;16.06;79.87;95666.22;5057879;28;1137;-72
2022/10/01 01:59:48;;;;;;;;;;;;;;;16.15;79.97;95675.09;5075643;28;1906;-72
2022/10/01 02:02:18;;;;;;;;;;;;;;;16.24;79.55;95678.53;5075875;28;1091;-72
2022/10/01 02:04:50;;;;;;;;;;;;;;;16.22;78.91;95692.22;5075909;28;966;-72
2022/10/01 02:07:22;;;;;;;;;;;;;;;16.25;78.63;95693.72;5075735;28;1040;-72
2022/10/01 02:10:07;;;;;;;;;;;;;;;16.15;79.01;95702.91;5075655;28;962;-72
2022/10/01 02:12:52;;;;;;;;;;;;;;;16.11;79.58;95704.28;5057715;28;1112;-72
2022/10/01 02:15:21;;;;;;;;;;;;;;;16.14;79.45;95690.44;5075785;28;1079;-72
2022/10/01 02:17:49;;;;;;;;;;;;;;;16.16;79.88;95688.41;5075541;28;1155;-73
2022/10/01 02:20:21;;;;;;;;;;;;;;;16.18;79.49;95694.44;5075509;28;2276;-73
2022/10/01 02:22:49;;;;;;;;;;;;;;;16.23;79.54;95688.50;5075400;28;928;-72
2022/10/01 02:25:17;;;;;;;;;;;;;;;16.23;80.02;95687.66;5075874;28;986;-72
2022/10/01 02:27:48;;;;;;;;;;;;;;;16.24;79.75;95674.00;5075481;28;1029;-73
2022/10/01 02:30:14;;;;;;;;;;;;;;;16.27;79.50;95680.88;5075487;28;1044;-73
2022/10/01 02:32:42;;;;;;;;;;;;;;;16.19;80.06;95682.63;5075143;28;1084;-73
2022/10/01 02:35:11;;;;;;;;;;;;;;;16.26;79.99;95677.34;5075208;28;1121;-73
2022/10/01 02:37:38;;;;;;;;;;;;;;;16.30;80.01;95675.13;5074897;28;976;-73
2022/10/01 02:40:05;;;;;;;;;;;;;;;16.26;79.86;95685.44;5056709;28;1902;-72
2022/10/01 02:42:33;;;;;;;;;;;;;;;16.34;79.62;95693.44;5075023;28;1044;-72
2022/10/01 02:45:01;;;;;;;;;;;;;;;16.34;79.79;95690.75;5074908;28;1060;-72
2022/10/01 02:47:33;;;;;;;;;;;;;;;16.29;80.00;95685.06;5075040;28;949;-70
2022/10/01 02:50:00;;;;;;;;;;;;;;;16.33;79.83;95693.63;5074855;28;1012;-74
2022/10/01 02:52:32;;;;;;;;;;;;;;;16.35;79.56;95703.22;5075341;28;1076;-73
2022/10/01 02:54:58;;;;;;;;;;;;;;;16.36;79.37;95713.00;5074999;28;1044;-72
2022/10/01 02:57:26;;;;;;;;;;;;;;;16.36;79.89;95713.00;5074764;28;1184;-71
2022/10/01 02:59:56;;;;;;;;;;;;;;;16.40;79.73;95722.38;5074619;28;1906;-71
2022/10/01 03:02:26;;;;;;;;;;;;;;;16.33;80.36;95718.78;5074765;28;982;-75
2022/10/01 03:04:52;;;;;;;;;;;;;;;16.25;80.93;95718.00;5074549;28;932;-70
2022/10/01 03:07:19;;;;;;;;;;;;;;;16.34;80.79;95716.91;5074790;28;1048;-75
2022/10/01 03:09:45;;;;;;;;;;;;;;;16.39;80.38;95704.53;5056768;28;1040;-72
2022/10/01 03:12:11;;;;;;;;;;;;;;;16.30;80.52;95696.72;5074517;28;1028;-71
2022/10/01 03:14:38;;;;;;;;;;;;;;;16.26;80.01;95698.06;5074431;28;980;-71
2022/10/01 03:17:05;;;;;;;;;;;;;;;16.15;80.10;95683.19;5063184;28;1150;-72
2022/10/01 03:19:31;;;;;;;;;;;;;;;16.17;80.33;95675.75;5054495;28;1989;-70
2022/10/01 03:21:57;;;;;;;;;;;;;;;16.23;80.26;95649.91;5054465;28;1001;-71
2022/10/01 03:24:23;;;;;;;;;;;;;;;16.19;79.89;95627.84;5054307;28;1044;-70
2022/10/01 03:26:50;;;;;;;;;;;;;;;16.13;79.91;95621.31;5036407;28;1052;-71
2022/10/01 03:29:16;;;;;;;;;;;;;;;16.24;79.60;95646.16;5054199;28;1045;-71
2022/10/01 03:31:41;;;;;;;;;;;;;;;16.29;80.02;95649.16;5054091;28;991;-71
2022/10/01 03:34:08;;;;;;;;;;;;;;;16.26;79.95;95639.56;5054011;28;1038;-71
2022/10/01 03:36:34;;;;;;;;;;;;;;;16.27;80.58;95637.72;5054321;28;1015;-71
2022/10/01 03:39:00;;;;;;;;;;;;;;;16.23;80.42;95649.91;5036451;28;1906;-71
2022/10/01 03:41:26;;;;;;;;;;;;;;;16.30;80.67;95643.56;5054104;28;981;-76
2022/10/01 03:43:52;;;;;;;;;;;;;;;16.30;80.43;95640.03;5036264;28;1105;-73
2022/10/01 03:46:18;;;;;;;;;;;;;;;16.30;80.49;95642.75;5053912;28;979;-72
2022/10/01 03:48:44;;;;;;;;;;;;;;;16.33;80.43;95623.47;5035976;28;986;-73
2022/10/01 03:51:10;;;;;;;;;;;;;;;16.30;80.48;95629.25;5036278;28;976;-72
2022/10/01 03:53:36;;;;;;;;;;;;;;;16.29;80.52;95630.25;5053837;28;1006;-73
2022/10/01 03:56:03;;;;;;;;;;;;;;;16.32;80.28;95638.81;5053883;28;971;-73
2022/10/01 03:58:29;;;;;;;;;;;;;;;16.36;80.10;95636.59;5053529;28;1980;-74
2022/10/01 04:00:56;;;;;;;;;;;;;;;16.38;80.08;95637.25;5053577;28;1051;-74
2022/10/01 04:03:22;;;;;;;;;;;;;;;16.36;80.22;95644.69;5035861;28;1029;-74
2022/10/01 04:05:48;;;;;;;;;;;;;;;16.39;80.00;95645.16;5036068;28;1018;-74
2022/10/01 04:08:15;;;;;;;;;;;;;;;16.36;80.18;95650.94;5053710;28;1031;-73
2022/10/01 04:10:41;;;;;;;;;;;;;;;16.40;80.28;95656.78;5035926;28;975;-74
2022/10/01 04:13:07;;;;;;;;;;;;;;;16.29;80.70;95659.94;5053783;28;1021;-75
2022/10/01 04:15:33;;;;;;;;;;;;;;;16.33;80.15;95667.50;5053912;28;1032;-76
2022/10/01 04:18:04;;;;;;;;;;;;;;;16.35;80.26;95661.91;5035498;28;1918;-77
2022/10/01 04:20:32;;;;;;;;;;;;;;;16.38;80.70;95685.81;5053384;28;1052;-73
2022/10/01 04:22:58;;;;;;;;;;;;;;;16.36;80.86;95699.50;5053392;28;1024;-71
2022/10/01 04:25:25;;;;;;;;;;;;;;;16.40;80.87;95706.19;5053435;28;957;-73
2022/10/01 04:27:54;;;;;;;;;;;;;;;16.35;80.93;95714.03;5035526;28;1065;-73
2022/10/01 04:30:20;;;;;;;;;;;;;;;16.39;81.16;95706.41;5035498;28;963;-72
2022/10/01 04:32:47;;;;;;;;;;;;;;;16.33;81.07;95704.41;5053361;28;1050;-69
2022/10/01 04:35:13;;;;;;;;;;;;;;;16.36;80.65;95706.75;5035552;28;1038;-68
2022/10/01 04:37:39;;;;;;;;;;;;;;;16.43;80.37;95709.53;5035517;28;1078;-67
2022/10/01 04:40:05;;;;;;;;;;;;;;;16.52;80.31;95714.72;5053198;28;1906;-70
2022/10/01 04:42:31;;;;;;;;;;;;;;;16.49;80.86;95716.94;5053076;28;1072;-73
2022/10/01 04:44:57;;;;;;;;;;;;;;;16.44;81.07;95708.53;5035273;28;1070;-72
2022/10/01 04:47:23;;;;;;;;;;;;;;;16.49;80.62;95712.38;5053009;28;1031;-78
2022/10/01 04:49:49;;;;;;;;;;;;;;;16.52;81.25;95725.50;5035496;28;1061;-70
2022/10/01 04:52:15;;;;;;;;;;;;;;;16.54;81.69;95730.69;5053515;28;1038;-71
2022/10/01 04:54:41;;;;;;;;;;;;;;;16.52;81.40;95739.00;5053055;28;978;-74
2022/10/01 04:57:07;;;;;;;;;;;;;;;16.57;81.07;95741.97;5054563;28;1251;-74
2022/10/01 04:59:33;;;;;;;;;;;;;;;16.59;80.90;95734.53;5072853;28;1906;-69
2022/10/01 05:01:59;;;;;;;;;;;;;;;16.56;81.36;95737.59;5056546;28;1025;-60
2022/10/01 05:04:26;;;;;;;;;;;;;;;16.48;82.22;95705.28;5076958;28;1092;-67
2022/10/01 05:06:52;;;;;;;;;;;;;;;16.42;82.35;95646.66;5059210;28;1049;-65
2022/10/01 05:09:18;;;;;;;;;;;;;;;16.48;81.74;95732.25;5076816;28;921;-73
2022/10/01 05:11:44;;;;;;;;;;;;;;;16.59;81.47;95752.59;5076817;28;1035;-78
2022/10/01 05:14:10;;;;;;;;;;;;;;;16.65;81.29;95735.66;5076808;28;980;-81
2022/10/01 05:16:36;;;;;;;;;;;;;;;16.70;81.28;95706.25;5051477;28;1210;-73
2022/10/01 05:19:03;;;;;;;;;;;;;;;16.73;81.48;95702.31;5039162;28;1991;-75
2022/10/01 05:21:29;;;;;;;;;;;;;;;16.80;81.93;95705.97;5038895;28;1029;-72
2022/10/01 05:23:55;;;;;;;;;;;;;;;16.91;81.71;95702.81;5056553;28;964;-74
2022/10/01 05:26:22;;;;;;;;;;;;;;;16.95;81.64;95703.28;5056564;28;1021;-70
2022/10/01 05:28:48;;;;;;;;;;;;;;;16.91;81.52;95705.53;5038660;28;1045;-75
2022/10/01 05:31:14;;;;;;;;;;;;;;;16.97;81.06;95718.28;5056411;28;1035;-70
2022/10/01 05:33:41;;;;;;;;;;;;;;;17.01;80.73;95739.53;5056558;28;1037;-72
2022/10/01 05:36:07;;;;;;;;;;;;;;;17.02;81.57;95725.00;5056511;28;1183;-74
2022/10/01 05:38:36;;;;;;;;;;;;;;;17.00;81.08;95736.00;5038581;28;1902;-73
2022/10/01 05:41:03;;;;;;;;;;;;;;;17.00;81.74;95756.75;5056386;28;1041;-70
2022/10/01 05:43:30;;;;;;;;;;;;;;;17.03;80.78;95772.59;5038511;28;1033;-70
2022/10/01 05:46:02;;;;;;;;;;;;;;;17.05;81.76;95781.34;5056138;28;1210;-75
2022/10/01 05:48:32;;;;;;;;;;;;;;;17.16;80.55;95768.19;5038614;28;1026;-74
2022/10/01 05:50:59;;;;;;;;;;;;;;;17.19;80.69;95758.91;5038429;28;1100;-78
2022/10/01 05:53:25;;;;;;;;;;;;;;;17.16;80.27;95764.66;5056030;28;1053;-77
2022/10/01 05:55:52;;;;;;;;;;;;;;;17.18;80.56;95763.44;5055883;28;1040;-74
2022/10/01 05:58:18;;;;;;;;;;;;;;;17.17;81.32;95766.34;5065289;28;1979;-75
2022/10/01 06:00:44;;;;;;;;;;;;;;;17.21;81.31;95773.06;5058075;28;1029;-75
2022/10/01 06:03:14;;;;;;;;;;;;;;;17.22;81.07;95779.28;5075849;28;1182;-75
2022/10/01 06:05:43;;;;;;;;;;;;;;;17.23;82.36;95773.69;5075888;28;1062;-74
2022/10/01 06:08:09;;;;;;;;;;;;;;;17.25;81.94;95776.22;5075733;28;1028;-75
2022/10/01 06:10:35;;;;;;;;;;;;;;;17.37;81.34;95793.63;5075652;28;999;-75
2022/10/01 06:13:04;;;;;;;;;;;;;;;17.42;81.53;95787.69;5057112;28;1064;-75
2022/10/01 06:15:36;;;;;;;;;;;;;;;17.43;81.17;95782.06;5075540;28;1088;-75
2022/10/01 06:18:03;;;;;;;;;;;;;;;17.51;81.12;95775.69;5057782;28;1913;-75
2022/10/01 06:20:29;;;;;;;;;;;;;;;17.58;80.28;95763.13;5075645;28;1053;-73
2022/10/01 06:22:56;;;;;;;;;;;;;;;17.71;80.00;95749.75;5075443;28;1068;-74
2022/10/01 06:25:23;;;;;;;;;;;;;;;18.14;78.19;95751.69;5075382;28;989;-74
2022/10/01 06:27:55;;;;;;;;;;;;;;;18.44;77.10;95756.94;5075271;28;1013;-75
2022/10/01 06:30:21;;;;;;;;;;;;;;;18.53;76.44;95772.88;5075543;28;994;-76
2022/10/01 06:32:47;;;;;;;;;;;;;;;18.59;76.42;95787.50;5075353;28;989;-75
2022/10/01 06:35:13;;;;;;;;;;;;;;;18.84;76.18;95789.81;5057631;28;1037;-71
2022/10/01 06:37:39;;;;;;;;;;;;;;;19.09;75.14;95801.03;5075134;28;1060;-73
2022/10/01 06:40:06;;;;;;;;;;;;;;;19.14;74.90;95795.81;5075028;28;1981;-74
2022/10/01 06:42:32;;;;;;;;;;;;;;;19.04;76.08;95789.94;5075117;28;1103;-75
2022/10/01 06:44:58;;;;;;;;;;;;;;;18.97;76.01;95789.91;5075211;28;956;-74
2022/10/01 06:47:24;;;;;;;;;;;;;;;18.80;76.50;95783.94;5057494;28;969;-73
2022/10/01 06:49:50;;;;;;;;;;;;;;;18.69;76.32;95770.91;5074803;28;1088;-74
2022/10/01 06:55:01;;;;;;;;;;;;;;;18.65;77.50;95773.16;5074912;28;1128;-74
2022/10/01 06:57:28;;;;;;;;;;;;;;;18.70;76.66;95768.00;5074664;28;1123;-74
2022/10/01 06:59:54;;;;;;;;;;;;;;;18.75;78.00;95772.81;5074574;28;1902;-74
2022/10/01 07:02:22;;;;;;;;;;;;;;;18.75;78.25;95780.94;5074853;28;1251;-75
2022/10/01 07:04:48;;;;;;;;;;;;;;;18.65;78.67;95789.41;5074653;28;946;-73
2022/10/01 07:07:15;;;;;;;;;;;;;;;18.62;78.42;95797.91;5074535;28;1050;-71
2022/10/01 07:09:41;;;;;;;;;;;;;;;18.59;79.05;95813.72;5074753;28;970;-71
2022/10/01 07:12:07;;;;;;;;;;;;;;;18.55;79.42;95815.97;5074496;28;1118;-70
2022/10/01 07:14:33;;;;;;;;;;;;;;;18.50;78.98;95819.28;5074476;28;1036;-70
2022/10/01 07:16:59;;;;;;;;;;;;;;;18.43;79.47;95812.13;5063946;28;1214;-70
2022/10/01 07:19:25;;;;;;;;;;;;;;;18.37;78.75;95808.31;5036770;28;1971;-71
2022/10/01 07:21:51;;;;;;;;;;;;;;;18.30;79.01;95810.97;5036487;28;1065;-71
2022/10/01 07:24:17;;;;;;;;;;;;;;;18.27;79.57;95805.13;5054132;28;961;-71
2022/10/01 07:26:43;;;;;;;;;;;;;;;18.18;79.07;95795.44;5054119;28;1028;-71
2022/10/01 07:29:09;;;;;;;;;;;;;;;18.10;78.90;95799.94;5054332;28;969;-71
2022/10/01 07:31:35;;;;;;;;;;;;;;;18.07;79.13;95803.03;5054076;28;1052;-71
2022/10/01 07:34:01;;;;;;;;;;;;;;;18.03;79.78;95815.25;5054267;28;951;-71
2022/10/01 07:36:28;;;;;;;;;;;;;;;18.10;80.48;95818.06;5053966;28;994;-74
2022/10/01 07:38:54;;;;;;;;;;;;;;;18.12;80.94;95811.41;5036396;28;1997;-71
2022/10/01 07:41:21;;;;;;;;;;;;;;;18.13;80.92;95826.59;5036258;28;1037;-70
2022/10/01 07:43:48;;;;;;;;;;;;;;;18.13;80.97;95807.66;5054012;28;967;-70
2022/10/01 07:46:14;;;;;;;;;;;;;;;18.09;80.93;95809.06;5053989;28;969;-71
2022/10/01 07:48:40;;;;;;;;;;;;;;;18.11;81.26;95815.13;5053855;28;1015;-70
2022/10/01 07:51:07;;;;;;;;;;;;;;;18.10;81.94;95805.34;5036189;28;989;-72
2022/10/01 07:53:33;;;;;;;;;;;;;;;18.08;81.74;95785.78;5054007;28;1053;-71
2022/10/01 07:56:00;;;;;;;;;;;;;;;18.04;82.53;95784.47;5053641;28;1104;-71
2022/10/01 07:58:26;;;;;;;;;;;;;;;18.13;83.23;95777.06;5053426;28;1930;-71
2022/10/01 08:00:57;;;;;;;;;;;;;;;18.12;83.02;95786.22;5053671;28;956;-68
2022/10/01 08:03:23;;;;;;;;;;;;;;;18.16;83.55;95784.81;5053735;28;1025;-67
2022/10/01 08:05:51;;;;;;;;;;;;;;;18.19;82.80;95786.28;5035780;28;1009;-67
2022/10/01 08:08:17;;;;;;;;;;;;;;;18.22;83.31;95792.16;5053511;28;986;-79
2022/10/01 08:10:44;;;;;;;;;;;;;;;18.20;83.45;95793.38;5053609;28;1015;-77
2022/10/01 08:13:14;;;;;;;;;;;;;;;18.20;84.28;95777.13;5053565;28;976;-78
2022/10/01 08:15:41;;;;;;;;;;;;;;;18.23;83.96;95788.41;5035703;28;1123;-71
2022/10/01 08:18:07;;;;;;;;;;;;;;;18.23;83.92;95774.03;5053292;28;2248;-70
2022/10/01 08:20:33;;;;;;;;;;;;;;;18.21;84.65;95759.84;5053589;28;1021;-70
2022/10/01 08:23:04;;;;;;;;;;;;;;;18.20;84.33;95761.72;5053425;28;1017;-70
2022/10/01 08:25:30;;;;;;;;;;;;;;;18.26;84.48;95762.81;5035731;28;1120;-71
2022/10/01 08:27:56;;;;;;;;;;;;;;;18.28;84.91;95742.63;5053299;28;1049;-70
2022/10/01 08:30:22;;;;;;;;;;;;;;;18.28;84.82;95761.59;5035645;28;983;-69
2022/10/01 08:32:52;;;;;;;;;;;;;;;18.30;84.50;95769.53;5035472;28;976;-71
2022/10/01 08:35:18;;;;;;;;;;;;;;;18.27;85.44;95783.47;5053226;28;1071;-70
2022/10/01 08:37:45;;;;;;;;;;;;;;;18.25;84.81;95820.69;5052601;28;974;-70
2022/10/01 08:40:11;;;;;;;;;;;;;;;18.16;84.63;95817.28;5053348;28;1983;-70
2022/10/01 08:42:40;;;;;;;;;;;;;;;18.10;84.98;95799.13;5053186;28;1021;-70
2022/10/01 08:45:33;;;;;;;;;;;;;;;18.10;84.54;95801.81;5053198;28;1055;-69
2022/10/01 08:48:04;;;;;;;;;;;;;;;18.02;85.60;95812.75;5049477;28;1132;-70
2022/10/01 08:50:35;;;;;;;;;;;;;;;18.00;85.41;95839.97;5053281;28;1040;-70
2022/10/01 08:53:03;;;;;;;;;;;;;;;17.97;85.78;95845.78;5053100;28;915;-69
2022/10/01 08:55:35;;;;;;;;;;;;;;;17.92;86.00;95872.56;5053141;28;1026;-70
2022/10/01 08:58:02;;;;;;;;;;;;;;;17.97;86.33;95897.19;5061758;28;1093;-74
2022/10/01 09:00:31;;;;;;;;;;;;;;;17.99;86.99;95910.53;5073149;28;1991;-72
2022/10/01 09:02:59;;;;;;;;;;;;;;;18.01;86.66;95903.06;5073126;28;965;-71
2022/10/01 09:05:38;;;;;;;;;;;;;;;18.03;86.90;95906.44;5073171;28;1018;-72
2022/10/01 09:08:15;;;;;;;;;;;;;;;18.01;87.27;95900.38;5073051;28;1044;-72
2022/10/01 09:10:41;;;;;;;;;;;;;;;18.04;87.37;95891.84;5072843;28;1040;-72
2022/10/01 09:13:17;;;;;;;;;;;;;;;18.07;87.01;95891.50;5055161;28;1119;-74
2022/10/01 09:15:57;;;;;;;;;;;;;;;17.99;88.40;95907.84;5055223;28;1003;-73
2022/10/01 09:18:29;;;;;;;;;;;;;;;18.04;88.27;95892.72;5033021;28;1906;-71
2022/10/01 09:20:58;;;;;;;;;;;;;;;18.12;88.06;95891.75;5032763;28;1040;-71
2022/10/01 09:23:29;;;;;;;;;;;;;;;18.12;88.46;95879.06;5032886;28;1188;-73
2022/10/01 09:25:58;;;;;;;;;;;;;;;18.12;89.53;95867.41;5032803;28;960;-72
2022/10/01 09:28:32;;;;;;;;;;;;;;;18.12;88.30;95856.59;5015461;28;969;-72
2022/10/01 09:30:59;;;;;;;;;;;;;;;18.12;88.54;95835.75;5065271;28;1008;-74
2022/10/01 09:33:30;;;;;;;;;;;;;;;18.12;88.96;95841.19;5054911;28;1044;-74
2022/10/01 09:36:19;;;;;;;;;;;;;;;18.04;89.96;95813.38;5055066;28;1076;-73
2022/10/01 09:38:50;;;;;;;;;;;;;;;18.05;88.62;95802.38;5059547;28;1902;-73
2022/10/01 09:41:18;;;;;;;;;;;;;;;18.09;88.34;95776.59;5072444;28;1251;-73
2022/10/01 09:43:44;;;;;;;;;;;;;;;18.14;87.51;95774.16;5072360;28;1448;-73
2022/10/01 09:46:13;;;;;;;;;;;;;;;18.07;87.67;95792.19;5072450;28;1045;-73
2022/10/01 09:48:54;;;;;;;;;;;;;;;18.04;88.95;95795.31;5074701;28;1092;-73
2022/10/01 09:51:30;;;;;;;;;;;;;;;18.09;88.79;95786.59;5066054;28;1135;-72
2022/10/01 09:54:02;;;;;;;;;;;;;;;18.17;88.77;95763.97;5056009;28;1032;-72
2022/10/01 09:56:32;;;;;;;;;;;;;;;18.18;88.37;95780.03;5055986;28;997;-72
2022/10/01 09:59:00;;;;;;;;;;;;;;;18.25;88.49;95791.78;5054042;28;1910;-72
2022/10/01 10:01:38;;;;;;;;;;;;;;;18.26;89.51;95776.34;5058154;28;1041;-72
2022/10/01 10:04:05;;;;;;;;;;;;;;;18.32;89.74;95789.94;5075927;28;1089;-73
2022/10/01 10:06:31;;;;;;;;;;;;;;;18.29;90.94;95803.88;5075936;28;1007;-72
2022/10/01 10:08:58;;;;;;;;;;;;;;;18.27;89.58;95822.19;5075661;28;990;-72
2022/10/01 10:11:26;;;;;;;;;;;;;;;18.28;89.49;95817.59;5075705;28;1092;-72
2022/10/01 10:13:54;;;;;;;;;;;;;;;18.30;89.01;95816.38;5075537;28;1310;-72
2022/10/01 10:16:25;;;;;;;;;;;;;;;18.34;89.30;95816.81;5070639;28;1147;-72
2022/10/01 10:18:58;;;;;;;;;;;;;;;18.35;89.72;95813.09;5055387;28;1902;-73
2022/10/01 10:21:26;;;;;;;;;;;;;;;18.37;89.65;95829.16;5047349;28;1050;-73
2022/10/01 10:24:03;;;;;;;;;;;;;;;18.41;90.13;95825.84;5075261;28;1049;-72
2022/10/01 10:26:31;;;;;;;;;;;;;;;18.41;89.88;95801.50;5068584;28;1226;-71
2022/10/01 10:28:58;;;;;;;;;;;;;;;18.43;89.89;95807.53;5075303;28;1088;-72
2022/10/01 10:31:26;;;;;;;;;;;;;;;18.43;89.61;95798.59;5068229;28;1211;-72
2022/10/01 10:33:52;;;;;;;;;;;;;;;18.48;89.73;95764.50;5075292;28;984;-72
2022/10/01 10:36:20;;;;;;;;;;;;;;;18.58;89.62;95756.03;5075228;28;1005;-71
2022/10/01 10:38:48;;;;;;;;;;;;;;;18.70;89.64;95757.16;5057545;28;1918;-71
2022/10/01 10:41:16;;;;;;;;;;;;;;;18.82;89.61;95749.34;5074859;28;1065;-72
2022/10/01 10:43:43;;;;;;;;;;;;;;;18.92;89.13;95749.84;5075176;28;971;-73
2022/10/01 10:46:09;;;;;;;;;;;;;;;19.05;88.58;95742.84;5075149;28;966;-72
2022/10/01 10:48:44;;;;;;;;;;;;;;;19.10;88.10;95751.19;5075461;28;960;-72
2022/10/01 10:51:10;;;;;;;;;;;;;;;19.13;87.76;95745.38;5074969;28;1195;-70
2022/10/01 10:53:44;;;;;;;;;;;;;;;19.11;87.45;95739.31;5057027;28;1052;-73
2022/10/01 10:56:21;;;;;;;;;;;;;;;19.11;87.79;95740.16;5073717;28;1073;-75
2022/10/01 10:58:48;;;;;;;;;;;;;;;19.14;87.88;95729.94;5089836;28;1973;-73
2022/10/01 11:01:16;;;;;;;;;;;;;;;19.16;87.69;95734.16;5094601;28;1015;-73
2022/10/01 11:03:47;;;;;;;;;;;;;;;19.23;87.58;95721.44;5095086;28;952;-76
2022/10/01 11:06:14;;;;;;;;;;;;;;;19.27;88.92;95711.03;5094715;28;1248;-67
2022/10/01 11:08:41;;;;;;;;;;;;;;;19.24;88.67;95709.56;5076812;28;1071;-68
2022/10/01 11:11:10;;;;;;;;;;;;;;;19.25;88.98;95710.41;5094922;28;1033;-76
2022/10/01 11:14:11;;;;;;;;;;;;;;;19.25;89.18;95711.22;5076783;28;999;-75
2022/10/01 11:16:40;;;;;;;;;;;;;;;19.26;89.27;95704.78;4992507;28;1389;-73
2022/10/01 11:19:06;;;;;;;;;;;;;;;19.23;88.99;95701.63;5059674;28;1906;-73
2022/10/01 11:21:45;;;;;;;;;;;;;;;19.22;90.97;95672.88;5074326;28;1111;-68
2022/10/01 11:24:18;;;;;;;;;;;;;;;19.20;92.23;95645.97;5074359;28;1033;-73
2022/10/01 11:27:16;;;;;;;;;;;;;;;19.23;90.84;95666.41;5061280;28;1003;-76
2022/10/01 11:30:02;;;;;;;;;;;;;;;19.35;90.27;95663.94;5039391;28;1219;-74
2022/10/01 11:32:28;;;;;;;;;;;;;;;19.41;91.07;95658.53;5094469;28;969;-75
2022/10/01 11:35:06;;;;;;;;;;;;;;;19.44;90.90;95657.28;5094262;28;1087;-75
2022/10/01 11:37:32;;;;;;;;;;;;;;;19.41;91.10;95658.53;5094259;28;1191;-74
2022/10/01 11:40:02;;;;;;;;;;;;;;;19.45;90.96;95651.66;5076379;28;1910;-77
2022/10/01 11:42:34;;;;;;;;;;;;;;;19.50;90.79;95643.75;5076300;28;1106;-76
2022/10/01 11:45:03;;;;;;;;;;;;;;;19.62;89.51;95654.00;5076237;28;1025;-76
2022/10/01 11:47:32;;;;;;;;;;;;;;;19.65;90.19;95653.59;5087164;28;1009;-77
2022/10/01 11:50:01;;;;;;;;;;;;;;;19.68;88.84;95643.16;5094141;28;1024;-77
2022/10/01 11:52:28;;;;;;;;;;;;;;;19.77;90.63;95637.56;5094282;28;1039;-79
2022/10/01 11:54:54;;;;;;;;;;;;;;;19.67;90.95;95624.38;5093984;28;1004;-80
2022/10/01 12:00:07;;;;;;;;;;;;;;;19.82;88.91;95606.06;5093851;28;2021;-80
2022/10/01 12:02:56;;;;;;;;;;;;;;;19.93;87.80;95590.22;5075879;28;1083;-79
2022/10/01 12:05:24;;;;;;;;;;;;;;;20.05;87.29;95594.81;5094085;28;1055;-81
2022/10/01 12:07:53;;;;;;;;;;;;;;;20.21;86.40;95584.56;5053561;28;1002;-79
2022/10/01 12:10:27;;;;;;;;;;;;;;;20.32;85.53;95580.34;5053312;28;1040;-80
2022/10/01 12:13:00;;;;;;;;;;;;;;;20.32;86.44;95569.47;5052825;28;1079;-80
2022/10/01 12:15:43;;;;;;;;;;;;;;;20.31;86.34;95559.69;5053543;28;962;-79
2022/10/01 12:18:17;;;;;;;;;;;;;;;20.33;86.98;95563.84;5073564;28;946;-76
2022/10/01 12:20:46;;;;;;;;;;;;;;;20.35;87.62;95558.22;5073390;28;1001;-82
2022/10/01 12:23:16;;;;;;;;;;;;;;;20.42;86.94;95556.31;5073635;28;1001;-81
2022/10/01 12:25:42;;;;;;;;;;;;;;;20.49;88.12;95565.28;5055098;28;1339;-80
2022/10/01 12:28:12;;;;;;;;;;;;;;;20.51;86.49;95551.47;5090269;28;988;-73
2022/10/01 12:30:51;;;;;;;;;;;;;;;20.56;86.95;95554.38;5093504;28;1043;-72
2022/10/01 12:33:46;;;;;;;;;;;;;;;20.55;86.70;95544.59;5093486;28;1048;-73
2022/10/01 12:36:22;;;;;;;;;;;;;;;20.58;86.52;95546.84;5071645;28;1211;-73
2022/10/01 12:38:48;;;;;;;;;;;;;;;20.58;87.10;95541.44;5093279;28;1893;-73
2022/10/01 12:41:23;;;;;;;;;;;;;;;20.57;86.85;95518.03;5075623;28;1020;-74
2022/10/01 12:43:55;;;;;;;;;;;;;;;20.47;88.45;95508.47;5093263;28;1047;-74
2022/10/01 12:46:21;;;;;;;;;;;;;;;20.42;87.72;95493.84;5075353;28;1104;-71
2022/10/01 12:48:51;;;;;;;;;;;;;;;20.40;88.65;95480.50;5093283;28;1047;-72
2022/10/01 12:51:20;;;;;;;;;;;;;;;20.48;87.60;95493.81;5093428;28;1017;-72
2022/10/01 12:53:59;;;;;;;;;;;;;;;20.62;86.94;95482.94;5093235;28;1064;-72
2022/10/01 12:56:35;;;;;;;;;;;;;;;20.67;87.30;95475.81;5092997;28;945;-72
2022/10/01 12:59:08;;;;;;;;;;;;;;;20.70;86.10;95466.41;5093093;28;1898;-72
2022/10/01 13:01:37;;;;;;;;;;;;;;;20.71;85.84;95464.50;5093175;28;1016;-78
2022/10/01 13:04:16;;;;;;;;;;;;;;;20.65;86.45;95463.50;5075436;28;1037;-77
2022/10/01 13:06:42;;;;;;;;;;;;;;;20.66;85.97;95457.03;5088630;28;1208;-77
2022/10/01 13:09:15;;;;;;;;;;;;;;;20.71;86.45;95435.44;5075196;28;1067;-76
2022/10/01 13:11:44;;;;;;;;;;;;;;;20.71;86.51;95443.59;5093102;28;910;-71
2022/10/01 13:14:11;;;;;;;;;;;;;;;20.72;87.20;95458.03;5075324;28;966;-71